Time;durP1;ratioP1;P1;durP2;ratioP2;P2;SDS_P1;SDS_P2;PMS_P1;PMS_P2;Temp;Humidity;BMP_temperature;BMP_pressure;BME280_temperature;BME280_humidity;BME280_pressure;Samples;Min_cycle;Max_cycle;Signal;HPM_P1;HPM_P2
2023/09/14 04:43:41;;;;;;;;;;;;;;;20.47;67.95;97218.84;4248065;27;10221;-70
2023/09/14 04:45:45;;;;;;;;;;;;;;;20.74;67.12;97217.13;4241032;27;5855;-71
2023/09/14 04:47:48;;;;;;;;;;;;;;;20.98;67.13;97220.41;4236436;27;5674;-71
2023/09/14 04:49:51;;;;;;;;;;;;;;;21.16;66.40;97211.19;4236377;27;6286;-73
2023/09/14 04:51:52;;;;;;;;;;;;;;;21.32;66.15;97214.94;4242798;27;5646;-75
2023/09/14 04:53:55;;;;;;;;;;;;;;;21.42;65.59;97210.47;4244192;27;5832;-74
2023/09/14 04:55:58;;;;;;;;;;;;;;;21.51;65.28;97214.31;4245297;27;5654;-72
2023/09/14 04:58:01;;;;;;;;;;;;;;;21.58;64.70;97210.63;4248368;27;5729;-74
2023/09/14 05:00:08;;;;;;;;;;;;;;;21.62;64.36;97225.19;4248436;27;5717;-73
2023/09/14 05:02:10;;;;;;;;;;;;;;;21.68;63.92;97210.75;4246178;27;5638;-76
2023/09/14 05:04:13;;;;;;;;;;;;;;;21.72;64.10;97209.16;4248163;27;5895;-75
2023/09/14 05:06:16;;;;;;;;;;;;;;;21.74;63.35;97213.22;4248389;27;5706;-73
2023/09/14 05:08:19;;;;;;;;;;;;;;;21.73;63.43;97216.16;4246950;27;6359;-71
2023/09/14 05:10:22;;;;;;;;;;;;;;;21.75;63.52;97222.13;4240388;27;5818;-73
2023/09/14 05:12:25;;;;;;;;;;;;;;;21.79;63.19;97201.72;4248238;27;6494;-75
2023/09/14 05:14:27;;;;;;;;;;;;;;;21.82;62.85;97201.19;4248216;27;5653;-73
2023/09/14 05:16:32;;;;;;;;;;;;;;;21.84;62.50;97211.69;4242624;27;6450;-68
2023/09/14 05:18:35;;;;;;;;;;;;;;;21.87;62.40;97211.22;4247929;27;6337;-66
2023/09/14 05:20:37;;;;;;;;;;;;;;;21.86;62.19;97205.03;4233453;27;5765;-67
2023/09/14 05:22:39;;;;;;;;;;;;;;;21.90;62.44;97208.81;4248079;27;5740;-68
2023/09/14 05:24:42;;;;;;;;;;;;;;;21.92;62.22;97213.94;4247878;27;5666;-67
2023/09/14 05:26:47;;;;;;;;;;;;;;;21.92;61.84;97212.06;4244535;27;5752;-67
2023/09/14 05:28:50;;;;;;;;;;;;;;;21.94;62.15;97209.09;4247388;27;5695;-67
2023/09/14 05:30:53;;;;;;;;;;;;;;;21.94;62.05;97207.22;4247505;27;5659;-67
2023/09/14 05:32:57;;;;;;;;;;;;;;;21.96;61.82;97210.47;4245976;27;5797;-67
2023/09/14 05:35:01;;;;;;;;;;;;;;;21.95;61.33;97214.22;4241392;27;7718;-67
2023/09/14 05:37:03;;;;;;;;;;;;;;;21.93;61.79;97210.97;4243736;27;5658;-67
2023/09/14 05:39:06;;;;;;;;;;;;;;;21.94;61.41;97212.59;4247990;27;5790;-66
2023/09/14 05:41:10;;;;;;;;;;;;;;;21.95;61.59;97216.91;4248067;27;5733;-67
2023/09/14 05:43:13;;;;;;;;;;;;;;;21.96;60.93;97218.53;4244857;27;5650;-68
2023/09/14 05:45:16;;;;;;;;;;;;;;;21.98;60.90;97226.38;4236862;28;5638;-66
2023/09/14 05:47:19;;;;;;;;;;;;;;;21.99;60.96;97220.75;4236727;28;5694;-66
2023/09/14 05:49:23;;;;;;;;;;;;;;;22.01;61.04;97223.19;4236449;28;5748;-67
2023/09/14 05:51:26;;;;;;;;;;;;;;;22.05;60.67;97221.59;4236568;28;5757;-67
2023/09/14 05:53:29;;;;;;;;;;;;;;;22.08;60.78;97218.41;4236455;28;5748;-67
2023/09/14 05:55:32;;;;;;;;;;;;;;;22.08;60.60;97216.56;4236443;28;5724;-67
2023/09/14 05:57:34;;;;;;;;;;;;;;;22.10;60.69;97218.19;4236444;28;6453;-67
2023/09/14 05:59:37;;;;;;;;;;;;;;;22.13;60.23;97225.75;4236510;28;5726;-66
2023/09/14 06:01:40;;;;;;;;;;;;;;;22.14;60.58;97225.47;4236205;27;5662;-66
2023/09/14 06:03:43;;;;;;;;;;;;;;;22.16;60.37;97219.84;4236300;28;5719;-66
2023/09/14 06:05:48;;;;;;;;;;;;;;;22.16;60.49;97215.25;4236471;27;5701;-65
2023/09/14 06:07:51;;;;;;;;;;;;;;;22.17;59.98;97218.75;4236627;28;5662;-66
2023/09/14 06:09:54;;;;;;;;;;;;;;;22.18;60.28;97223.88;4236452;28;5661;-66
2023/09/14 06:11:57;;;;;;;;;;;;;;;22.19;59.88;97216.63;4236177;28;5658;-66
2023/09/14 06:13:59;;;;;;;;;;;;;;;22.20;60.15;97215.53;4236310;28;5134;-66
2023/09/14 06:16:03;;;;;;;;;;;;;;;22.20;59.86;97221.78;4236202;28;5733;-66
2023/09/14 06:18:06;;;;;;;;;;;;;;;22.20;59.88;97226.31;4235807;28;5661;-66
2023/09/14 06:20:10;;;;;;;;;;;;;;;22.21;59.80;97223.41;4236181;28;5638;-66
2023/09/14 06:22:14;;;;;;;;;;;;;;;22.22;59.69;97226.91;4236306;27;5658;-67
2023/09/14 06:24:17;;;;;;;;;;;;;;;22.25;59.65;97223.69;4235993;28;5721;-66
2023/09/14 06:26:20;;;;;;;;;;;;;;;22.26;59.59;97230.69;4235958;28;5813;-66
2023/09/14 06:28:23;;;;;;;;;;;;;;;22.27;59.90;97221.53;4234593;28;5662;-66
2023/09/14 06:30:26;;;;;;;;;;;;;;;22.26;59.57;97230.69;4235816;28;5748;-67
2023/09/14 06:32:29;;;;;;;;;;;;;;;22.28;59.50;97226.66;4235443;28;7290;-66
2023/09/14 06:34:33;;;;;;;;;;;;;;;22.30;59.45;97226.41;4235698;28;5670;-66
2023/09/14 06:36:36;;;;;;;;;;;;;;;22.31;59.45;97222.63;4235756;28;5638;-66
2023/09/14 06:38:41;;;;;;;;;;;;;;;22.30;59.84;97221.81;4235784;28;5841;-66
2023/09/14 06:40:44;;;;;;;;;;;;;;;22.31;59.20;97219.94;4235718;28;5645;-66
2023/09/14 06:42:47;;;;;;;;;;;;;;;22.33;59.44;97220.53;4235522;28;5657;-66
2023/09/14 06:44:50;;;;;;;;;;;;;;;22.33;59.56;97236.69;4235522;28;5654;-66
2023/09/14 06:46:53;;;;;;;;;;;;;;;22.34;59.17;97238.31;4235578;28;5650;-67
2023/09/14 06:48:56;;;;;;;;;;;;;;;22.33;59.44;97240.19;4235217;28;5670;-67
2023/09/14 06:50:59;;;;;;;;;;;;;;;22.34;59.17;97232.91;4235577;28;5655;-67
2023/09/14 06:53:03;;;;;;;;;;;;;;;22.36;59.11;97238.84;4235311;28;5661;-67
2023/09/14 06:55:08;;;;;;;;;;;;;;;22.34;59.12;97231.03;4234609;28;5732;-66
2023/09/14 06:57:11;;;;;;;;;;;;;;;22.36;58.54;97238.84;4235730;28;5859;-67
2023/09/14 06:59:14;;;;;;;;;;;;;;;22.37;58.38;97237.78;4235107;28;7695;-66
2023/09/14 07:01:17;;;;;;;;;;;;;;;22.35;58.45;97229.97;4235499;28;5679;-66
2023/09/14 07:03:20;;;;;;;;;;;;;;;22.37;58.19;97235.09;4235013;28;5671;-66
2023/09/14 07:05:23;;;;;;;;;;;;;;;22.37;58.23;97232.41;4235603;28;5635;-67
2023/09/14 07:07:26;;;;;;;;;;;;;;;22.37;58.04;97238.59;4235217;27;6470;-66
2023/09/14 07:09:30;;;;;;;;;;;;;;;22.33;58.29;97245.56;4235342;28;6671;-66
2023/09/14 07:11:35;;;;;;;;;;;;;;;22.37;58.46;97245.88;4235197;28;5674;-66
2023/09/14 07:13:38;;;;;;;;;;;;;;;22.40;57.78;97249.91;4235301;28;5713;-66
2023/09/14 07:15:41;;;;;;;;;;;;;;;22.37;57.67;97253.94;4235011;28;5658;-66
2023/09/14 07:17:44;;;;;;;;;;;;;;;22.37;58.06;97251.25;4235267;28;5657;-66
2023/09/14 07:19:47;;;;;;;;;;;;;;;22.39;57.78;97243.72;4234917;28;5733;-66
2023/09/14 07:21:50;;;;;;;;;;;;;;;22.43;57.34;97247.53;4234913;28;5734;-66
2023/09/14 07:23:53;;;;;;;;;;;;;;;22.39;57.51;97249.09;4235003;28;5650;-66
2023/09/14 07:25:57;;;;;;;;;;;;;;;22.39;57.45;97243.72;4235084;28;5733;-66
2023/09/14 07:28:01;;;;;;;;;;;;;;;22.42;57.95;97248.59;4234843;28;5653;-66
2023/09/14 07:30:06;;;;;;;;;;;;;;;22.46;57.51;97247.00;4234935;28;5681;-66
2023/09/14 07:32:09;;;;;;;;;;;;;;;22.47;57.45;97248.63;4234751;28;5708;-65
2023/09/14 07:34:13;;;;;;;;;;;;;;;22.51;57.65;97249.75;4234630;28;5968;-65
2023/09/14 07:36:16;;;;;;;;;;;;;;;22.53;57.40;97247.59;4234947;28;5665;-66
2023/09/14 07:38:22;;;;;;;;;;;;;;;22.55;57.46;97245.47;4234943;28;5658;-66
2023/09/14 07:40:25;;;;;;;;;;;;;;;22.56;57.53;97255.19;4234984;28;5654;-66
2023/09/14 07:42:28;;;;;;;;;;;;;;;22.59;56.93;97251.16;4234414;28;5631;-66
2023/09/14 07:44:32;;;;;;;;;;;;;;;22.54;57.27;97246.53;4234493;28;6450;-66
2023/09/14 07:46:36;;;;;;;;;;;;;;;22.55;56.69;97244.66;4235009;27;5634;-65
2023/09/14 07:48:41;;;;;;;;;;;;;;;22.54;56.87;97243.84;4234176;28;5841;-66
2023/09/14 07:50:44;;;;;;;;;;;;;;;22.51;56.91;97244.34;4234318;28;5646;-66
2023/09/14 07:52:46;;;;;;;;;;;;;;;22.49;56.58;97245.69;4234705;28;5654;-66
2023/09/14 07:54:50;;;;;;;;;;;;;;;22.47;56.52;97248.63;4234992;28;5782;-66
2023/09/14 07:56:52;;;;;;;;;;;;;;;22.46;56.37;97243.50;4234585;28;6484;-66
2023/09/14 07:58:56;;;;;;;;;;;;;;;22.46;56.32;97247.00;4234574;28;5732;-65
2023/09/14 08:01:00;;;;;;;;;;;;;;;22.48;56.67;97252.16;4234564;27;5653;-66
2023/09/14 08:03:04;;;;;;;;;;;;;;;22.47;56.29;97253.22;4233971;28;5721;-66
2023/09/14 08:05:08;;;;;;;;;;;;;;;22.47;56.45;97253.22;4234185;28;5749;-66
2023/09/14 08:07:12;;;;;;;;;;;;;;;22.50;56.47;97258.09;4234049;28;5874;-66
2023/09/14 08:09:15;;;;;;;;;;;;;;;22.51;56.07;97252.44;4234564;28;5863;-67
2023/09/14 08:11:18;;;;;;;;;;;;;;;22.52;56.23;97245.97;4234424;28;5646;-67
2023/09/14 08:13:21;;;;;;;;;;;;;;;22.51;55.51;97257.00;4234327;28;5718;-67
2023/09/14 08:15:23;;;;;;;;;;;;;;;22.50;55.45;97252.69;4234451;28;5678;-67
2023/09/14 08:17:28;;;;;;;;;;;;;;;22.51;56.07;97247.03;4234342;28;5638;-67
2023/09/14 08:19:31;;;;;;;;;;;;;;;22.58;56.16;97258.41;4234010;28;5283;-66
2023/09/14 08:21:33;;;;;;;;;;;;;;;22.61;55.74;97259.78;4234395;28;6296;-67
2023/09/14 08:23:36;;;;;;;;;;;;;;;22.63;55.71;97250.38;4234238;28;5713;-66
2023/09/14 08:25:43;;;;;;;;;;;;;;;22.69;55.59;97251.22;4226360;28;5658;-66
2023/09/14 08:27:46;;;;;;;;;;;;;;;22.75;55.64;97244.78;4234327;28;5662;-67
2023/09/14 08:29:49;;;;;;;;;;;;;;;22.82;55.82;97242.69;4234180;28;5095;-67
2023/09/14 08:31:52;;;;;;;;;;;;;;;22.87;55.76;97244.63;4234095;28;5662;-66
2023/09/14 08:33:57;;;;;;;;;;;;;;;22.91;55.44;97243.03;4233980;28;5863;-66
2023/09/14 08:35:59;;;;;;;;;;;;;;;22.94;55.73;97246.00;4234324;28;5657;-67
2023/09/14 08:38:03;;;;;;;;;;;;;;;22.97;55.71;97252.75;4234235;28;5762;-66
2023/09/14 08:40:09;;;;;;;;;;;;;;;22.99;55.59;97245.25;4234398;28;6328;-67
2023/09/14 08:42:13;;;;;;;;;;;;;;;22.96;55.04;97245.75;4232980;28;5733;-66
2023/09/14 08:44:16;;;;;;;;;;;;;;;22.94;54.58;97247.91;4234307;27;5965;-67
2023/09/14 08:46:21;;;;;;;;;;;;;;;22.97;55.19;97249.25;4234080;28;5638;-67
2023/09/14 08:48:27;;;;;;;;;;;;;;;23.00;54.61;97254.97;4233828;28;5808;-67
2023/09/14 08:50:33;;;;;;;;;;;;;;;23.02;54.50;97247.41;4234161;28;5670;-67
2023/09/14 08:52:39;;;;;;;;;;;;;;;23.01;54.36;97251.19;4234185;28;5670;-67
2023/09/14 08:54:42;;;;;;;;;;;;;;;23.04;54.84;97252.53;4226301;28;5716;-67
2023/09/14 08:56:47;;;;;;;;;;;;;;;23.03;54.74;97248.22;4233964;28;5654;-65
2023/09/14 08:58:52;;;;;;;;;;;;;;;22.99;53.91;97244.41;4233902;28;5713;-67
2023/09/14 09:00:56;;;;;;;;;;;;;;;22.96;54.39;97251.13;4234149;28;6613;-66
2023/09/14 09:02:59;;;;;;;;;;;;;;;22.96;54.17;97248.44;4234006;28;5662;-67
2023/09/14 09:05:03;;;;;;;;;;;;;;;22.99;54.33;97252.50;4233818;28;5701;-67
2023/09/14 09:07:08;;;;;;;;;;;;;;;23.03;54.55;97253.63;4234133;28;5794;-67
2023/09/14 09:09:15;;;;;;;;;;;;;;;23.02;54.03;97250.13;4234037;28;5705;-66
2023/09/14 09:11:17;;;;;;;;;;;;;;;23.03;54.57;97246.34;4234173;28;5800;-67
2023/09/14 09:13:22;;;;;;;;;;;;;;;23.05;54.33;97243.38;4233981;28;5670;-67
2023/09/14 09:15:26;;;;;;;;;;;;;;;23.06;54.62;97240.41;4234251;28;5638;-67
2023/09/14 09:17:37;;;;;;;;;;;;;;;23.11;54.49;97245.84;4234081;28;5671;-67
2023/09/14 09:19:48;;;;;;;;;;;;;;;23.15;54.32;97246.13;4236339;27;5781;-67
2023/09/14 09:21:51;;;;;;;;;;;;;;;23.16;54.39;97239.66;4237372;28;5841;-67
2023/09/14 09:23:54;;;;;;;;;;;;;;;23.16;54.03;97240.47;4237140;28;5451;-67
2023/09/14 09:25:58;;;;;;;;;;;;;;;23.19;54.27;97231.84;4237055;28;5752;-67
2023/09/14 09:28:02;;;;;;;;;;;;;;;23.22;54.29;97233.22;4237110;28;5650;-67
2023/09/14 09:30:07;;;;;;;;;;;;;;;23.24;54.54;97245.38;4237003;28;5667;-68
2023/09/14 09:32:21;;;;;;;;;;;;;;;23.27;54.39;97246.72;4236754;28;5642;-67
2023/09/14 09:34:28;;;;;;;;;;;;;;;23.30;54.49;97245.38;4236871;28;5673;-66
2023/09/14 09:36:31;;;;;;;;;;;;;;;23.33;54.28;97251.06;4237054;27;5690;-66
2023/09/14 09:38:37;;;;;;;;;;;;;;;23.37;54.53;97243.25;4236825;28;5651;-67
2023/09/14 09:40:46;;;;;;;;;;;;;;;23.40;54.25;97250.81;4236994;28;5638;-66
2023/09/14 09:42:50;;;;;;;;;;;;;;;23.40;54.81;97235.44;4236828;28;6359;-69
2023/09/14 09:44:58;;;;;;;;;;;;;;;23.44;54.84;97241.94;4237018;27;5683;-66
2023/09/14 09:47:02;;;;;;;;;;;;;;;23.48;54.91;97250.31;4236989;28;5646;-66
2023/09/14 09:49:16;;;;;;;;;;;;;;;23.51;54.52;97241.69;4236676;28;5757;-66
2023/09/14 09:51:21;;;;;;;;;;;;;;;23.53;54.60;97240.34;4236719;28;5649;-66
2023/09/14 09:53:24;;;;;;;;;;;;;;;23.56;54.70;97236.31;4236889;28;5657;-66
2023/09/14 09:55:29;;;;;;;;;;;;;;;23.58;54.99;97239.59;4236636;28;5729;-66
2023/09/14 09:57:36;;;;;;;;;;;;;;;23.59;55.18;97227.72;4236469;27;7775;-66
2023/09/14 09:59:40;;;;;;;;;;;;;;;23.61;55.05;97230.16;4236547;28;5649;-66
2023/09/14 10:01:46;;;;;;;;;;;;;;;23.60;54.96;97223.94;4236386;28;6458;-67
2023/09/14 10:03:49;;;;;;;;;;;;;;;23.60;55.20;97220.44;4236255;28;5646;-67
2023/09/14 10:05:53;;;;;;;;;;;;;;;23.61;54.80;97224.75;4236430;27;5685;-65
2023/09/14 10:07:58;;;;;;;;;;;;;;;23.61;55.02;97217.47;4236501;28;5729;-67
2023/09/14 10:10:01;;;;;;;;;;;;;;;23.63;55.10;97223.41;4236492;28;5662;-67
2023/09/14 10:12:06;;;;;;;;;;;;;;;23.65;54.94;97226.63;4236384;28;5649;-67
2023/09/14 10:14:13;;;;;;;;;;;;;;;23.66;54.69;97214.75;4236384;28;5701;-67
2023/09/14 10:16:22;;;;;;;;;;;;;;;23.69;55.21;97221.53;4236317;28;5642;-66
2023/09/14 10:18:28;;;;;;;;;;;;;;;23.70;54.87;97215.88;4236154;27;5650;-66
2023/09/14 10:20:31;;;;;;;;;;;;;;;23.74;55.32;97216.13;4236294;28;5721;-65
2023/09/14 10:22:35;;;;;;;;;;;;;;;23.75;55.03;97215.88;4236263;27;5716;-66
2023/09/14 10:24:39;;;;;;;;;;;;;;;23.78;55.11;97212.66;4236185;28;6332;-66
2023/09/14 10:26:43;;;;;;;;;;;;;;;23.79;55.07;97205.38;4236188;28;5088;-68
2023/09/14 10:28:48;;;;;;;;;;;;;;;23.79;55.37;97195.38;4236049;28;6323;-67
2023/09/14 10:30:54;;;;;;;;;;;;;;;23.80;55.04;97205.09;4236019;28;6316;-67
2023/09/14 10:32:59;;;;;;;;;;;;;;;23.81;54.93;97193.22;4235930;28;5650;-66
2023/09/14 10:35:03;;;;;;;;;;;;;;;23.85;55.34;97198.06;4235957;28;5638;-66
2023/09/14 10:37:11;;;;;;;;;;;;;;;23.88;55.01;97186.72;4236004;28;5649;-67
2023/09/14 10:39:18;;;;;;;;;;;;;;;23.89;55.28;97185.66;4235945;28;5661;-67
2023/09/14 10:41:22;;;;;;;;;;;;;;;23.92;55.46;97185.13;4235998;27;5865;-66
2023/09/14 10:43:25;;;;;;;;;;;;;;;23.91;55.07;97178.91;4235566;28;5642;-66
2023/09/14 10:45:34;;;;;;;;;;;;;;;23.93;55.03;97174.06;4235769;28;5762;-66
2023/09/14 10:47:41;;;;;;;;;;;;;;;23.95;55.17;97174.59;4235879;28;5638;-66
2023/09/14 10:49:45;;;;;;;;;;;;;;;23.97;55.26;97177.03;4235654;28;5713;-67
2023/09/14 10:51:50;;;;;;;;;;;;;;;24.00;55.01;97179.19;4235758;27;5768;-66
2023/09/14 10:53:53;;;;;;;;;;;;;;;24.03;54.98;97178.66;4235652;28;5658;-66
2023/09/14 10:55:56;;;;;;;;;;;;;;;24.05;55.31;97171.09;4235633;27;5734;-66
2023/09/14 10:58:00;;;;;;;;;;;;;;;24.08;55.03;97167.84;4235422;28;5658;-67
2023/09/14 11:00:06;;;;;;;;;;;;;;;24.10;55.24;97165.66;4235573;28;5770;-66
2023/09/14 11:02:56;;;;;;;;;;;;;;;24.14;55.26;97164.06;4235546;28;5733;-66
2023/09/14 11:05:21;;;;;;;;;;;;;;;24.18;55.11;97169.72;4235506;28;5661;-66
2023/09/14 11:07:39;;;;;;;;;;;;;;;24.20;55.10;97159.47;4235647;28;5757;-66
2023/09/14 11:10:04;;;;;;;;;;;;;;;24.24;55.12;97160.56;4235596;28;5642;-66
2023/09/14 11:12:20;;;;;;;;;;;;;;;24.26;55.31;97150.28;4235377;28;5646;-66
2023/09/14 11:14:25;;;;;;;;;;;;;;;24.27;54.95;97146.50;4235532;28;5675;-66
2023/09/14 11:16:42;;;;;;;;;;;;;;;24.30;55.08;97152.19;4235145;28;5909;-66
2023/09/14 11:18:57;;;;;;;;;;;;;;;24.32;55.25;97147.31;4235265;28;5646;-66
2023/09/14 11:21:03;;;;;;;;;;;;;;;24.34;55.11;97147.84;4235511;27;5630;-66
2023/09/14 11:23:10;;;;;;;;;;;;;;;24.31;54.81;97139.50;4235204;28;5855;-67
2023/09/14 11:25:26;;;;;;;;;;;;;;;24.34;54.87;97137.03;4235264;27;5649;-66
2023/09/14 11:27:36;;;;;;;;;;;;;;;24.33;54.73;97140.84;4235232;28;5658;-66
2023/09/14 11:29:42;;;;;;;;;;;;;;;24.31;55.01;97136.78;4235281;27;5893;-67
2023/09/14 11:31:56;;;;;;;;;;;;;;;24.30;54.92;97133.28;4234854;28;7695;-66
2023/09/14 11:34:12;;;;;;;;;;;;;;;24.30;54.80;97141.38;4235002;28;5655;-66
2023/09/14 11:36:18;;;;;;;;;;;;;;;24.32;54.63;97143.81;4235044;28;5645;-67
2023/09/14 11:38:27;;;;;;;;;;;;;;;24.34;54.45;97137.03;4235233;28;5828;-66
2023/09/14 11:40:35;;;;;;;;;;;;;;;24.37;54.85;97136.53;4235191;28;5642;-66
2023/09/14 11:43:20;;;;;;;;;;;;;;;24.39;54.73;97139.75;4234524;28;5960;-67
2023/09/14 11:45:43;;;;;;;;;;;;;;;24.39;54.22;97134.34;4234959;28;5642;-66
2023/09/14 11:47:51;;;;;;;;;;;;;;;24.37;54.38;97135.72;4234853;27;5642;-67
2023/09/14 11:50:05;;;;;;;;;;;;;;;24.41;54.30;97135.97;4234846;27;5778;-67
2023/09/14 11:52:11;;;;;;;;;;;;;;;24.43;54.35;97136.50;4234772;28;5068;-67
2023/09/14 11:54:14;;;;;;;;;;;;;;;24.43;54.53;97139.19;4234860;28;6335;-67
2023/09/14 11:56:18;;;;;;;;;;;;;;;24.44;54.51;97133.53;4234690;28;5650;-67
2023/09/14 11:58:24;;;;;;;;;;;;;;;24.46;54.38;97125.94;4234707;28;5801;-66
2023/09/14 12:00:37;;;;;;;;;;;;;;;24.52;54.31;97124.06;4233557;28;5653;-67
2023/09/14 12:02:40;;;;;;;;;;;;;;;24.55;54.20;97120.78;4234658;28;5729;-67
2023/09/14 12:04:44;;;;;;;;;;;;;;;24.58;54.09;97120.28;4234384;28;5766;-67
2023/09/14 12:06:48;;;;;;;;;;;;;;;24.61;54.44;97119.72;4234713;27;5764;-67
2023/09/14 12:08:51;;;;;;;;;;;;;;;24.63;54.20;97117.53;4234550;28;5777;-67
2023/09/14 12:10:56;;;;;;;;;;;;;;;24.63;53.97;97114.84;4234546;28;5853;-67
2023/09/14 12:13:09;;;;;;;;;;;;;;;24.63;53.96;97117.53;4234516;28;6354;-67
2023/09/14 12:15:18;;;;;;;;;;;;;;;24.63;54.41;97114.84;4234761;27;5762;-67
2023/09/14 12:17:22;;;;;;;;;;;;;;;24.63;53.92;97110.22;4234794;28;5637;-68
2023/09/14 12:19:25;;;;;;;;;;;;;;;24.63;53.93;97106.72;4234309;28;6536;-67
2023/09/14 12:21:29;;;;;;;;;;;;;;;24.63;54.03;97107.53;4234358;28;5630;-67
2023/09/14 12:23:36;;;;;;;;;;;;;;;24.64;53.82;97103.75;4234442;28;6456;-66
2023/09/14 12:25:40;;;;;;;;;;;;;;;24.63;53.96;97099.41;4234545;27;5654;-66
2023/09/14 12:27:44;;;;;;;;;;;;;;;24.62;54.16;97094.28;4233325;28;5661;-66
2023/09/14 12:29:49;;;;;;;;;;;;;;;24.66;53.94;97101.56;4234517;27;5630;-67
2023/09/14 12:31:52;;;;;;;;;;;;;;;24.68;54.01;97093.97;4234280;28;5642;-67
2023/09/14 12:33:54;;;;;;;;;;;;;;;24.72;54.05;97093.44;4234238;28;5753;-66
2023/09/14 12:35:58;;;;;;;;;;;;;;;24.75;53.88;97101.81;4234214;28;5733;-66
2023/09/14 12:38:03;;;;;;;;;;;;;;;24.77;53.74;97096.94;4234315;28;5646;-66
2023/09/14 12:40:10;;;;;;;;;;;;;;;24.80;54.09;97100.97;4234341;28;5749;-66
2023/09/14 12:42:14;;;;;;;;;;;;;;;24.79;54.21;97092.06;4234189;27;5634;-66
2023/09/14 12:44:18;;;;;;;;;;;;;;;24.79;54.09;97099.34;4234320;28;5741;-66
2023/09/14 12:46:23;;;;;;;;;;;;;;;24.77;53.90;97091.53;4234296;28;5658;-67
2023/09/14 12:48:28;;;;;;;;;;;;;;;24.77;54.23;97096.13;4234154;28;5837;-66
2023/09/14 12:50:33;;;;;;;;;;;;;;;24.77;53.80;97093.41;4234381;27;5686;-66
2023/09/14 12:52:38;;;;;;;;;;;;;;;24.75;53.77;97098.31;4234132;28;5694;-66
2023/09/14 12:54:42;;;;;;;;;;;;;;;24.77;53.86;97090.72;4236796;28;5744;-66
2023/09/14 12:56:47;;;;;;;;;;;;;;;24.78;54.03;97085.03;4237423;28;5811;-66
2023/09/14 12:58:51;;;;;;;;;;;;;;;24.79;54.24;97089.34;4237643;28;5656;-67
2023/09/14 13:00:55;;;;;;;;;;;;;;;24.83;54.27;97084.22;4237481;28;5679;-66
2023/09/14 13:02:58;;;;;;;;;;;;;;;24.84;54.21;97086.63;4237403;28;5650;-67
2023/09/14 13:05:00;;;;;;;;;;;;;;;24.86;53.89;97089.06;4237351;28;5666;-67
2023/09/14 13:07:03;;;;;;;;;;;;;;;24.85;53.81;97077.44;4237478;28;5649;-67
2023/09/14 13:09:07;;;;;;;;;;;;;;;24.86;54.17;97081.75;4237363;28;5654;-67
2023/09/14 13:11:22;;;;;;;;;;;;;;;24.90;53.84;97073.88;4237628;27;5650;-67
2023/09/14 13:13:31;;;;;;;;;;;;;;;24.90;54.11;97074.69;4237395;28;5630;-68
2023/09/14 13:15:35;;;;;;;;;;;;;;;24.95;53.97;97071.97;4237503;28;5650;-67
2023/09/14 13:17:37;;;;;;;;;;;;;;;24.98;54.03;97070.59;4237396;28;5088;-66
2023/09/14 13:19:40;;;;;;;;;;;;;;;25.00;54.10;97075.75;4237089;28;5653;-67
2023/09/14 13:21:43;;;;;;;;;;;;;;;25.01;53.76;97071.94;4237224;28;5654;-67
2023/09/14 13:23:46;;;;;;;;;;;;;;;25.02;53.76;97065.47;4237193;28;5825;-66
2023/09/14 13:25:49;;;;;;;;;;;;;;;25.02;54.07;97062.78;4237266;27;5642;-67
2023/09/14 13:27:53;;;;;;;;;;;;;;;25.03;53.76;97069.78;4237187;28;5813;-67
2023/09/14 13:29:56;;;;;;;;;;;;;;;25.03;53.83;97070.63;4237202;28;5799;-67
2023/09/14 13:31:59;;;;;;;;;;;;;;;25.04;53.68;97063.31;4237264;27;5634;-66
2023/09/14 13:34:03;;;;;;;;;;;;;;;25.06;53.86;97070.06;4236917;28;5647;-67
2023/09/14 13:36:06;;;;;;;;;;;;;;;25.06;54.09;97067.38;4236972;28;5679;-66
2023/09/14 13:38:09;;;;;;;;;;;;;;;25.06;53.82;97061.16;4236983;28;5638;-66
2023/09/14 13:40:18;;;;;;;;;;;;;;;25.06;53.97;97058.44;4236818;28;5657;-67
2023/09/14 13:42:22;;;;;;;;;;;;;;;25.07;53.93;97054.66;4236646;28;5642;-67
2023/09/14 13:44:25;;;;;;;;;;;;;;;25.09;53.93;97057.88;4236782;28;5700;-67
2023/09/14 13:46:29;;;;;;;;;;;;;;;25.09;54.22;97055.16;4236834;28;5639;-67
2023/09/14 13:48:32;;;;;;;;;;;;;;;25.08;53.90;97050.84;4236676;28;5761;-67
2023/09/14 13:50:35;;;;;;;;;;;;;;;25.07;53.85;97055.44;4236729;28;5757;-66
2023/09/14 13:52:38;;;;;;;;;;;;;;;25.07;53.89;97051.94;4236692;28;5732;-66
2023/09/14 13:54:41;;;;;;;;;;;;;;;25.06;54.01;97051.13;4236792;28;6318;-66
2023/09/14 13:56:44;;;;;;;;;;;;;;;25.06;53.94;97059.25;4236631;28;5646;-66
2023/09/14 13:58:47;;;;;;;;;;;;;;;25.06;54.35;97061.16;4236559;28;5796;-67
2023/09/14 14:00:50;;;;;;;;;;;;;;;25.04;54.04;97055.22;4236594;28;5649;-67
2023/09/14 14:03:07;;;;;;;;;;;;;;;25.04;54.29;97056.03;4236434;28;5646;-66
2023/09/14 14:05:11;;;;;;;;;;;;;;;25.04;54.22;97057.91;4235799;28;5657;-65
2023/09/14 14:07:14;;;;;;;;;;;;;;;25.02;54.19;97049.25;4236437;28;5642;-67
2023/09/14 14:09:19;;;;;;;;;;;;;;;25.02;54.26;97054.66;4236497;28;5769;-66
2023/09/14 14:11:22;;;;;;;;;;;;;;;24.99;54.02;97050.59;4236510;28;5800;-67
2023/09/14 14:13:25;;;;;;;;;;;;;;;24.98;54.22;97047.06;4236309;28;5671;-66
2023/09/14 14:15:28;;;;;;;;;;;;;;;24.97;54.08;97048.16;4236431;28;5764;-66
2023/09/14 14:17:31;;;;;;;;;;;;;;;24.94;54.37;97045.22;4236320;28;5650;-67
2023/09/14 14:19:35;;;;;;;;;;;;;;;24.96;54.15;97048.44;4236218;28;5646;-67
2023/09/14 14:21:40;;;;;;;;;;;;;;;24.95;54.37;97047.66;4236184;27;5651;-67
2023/09/14 14:23:44;;;;;;;;;;;;;;;24.94;54.05;97042.53;4229208;27;7703;-67
2023/09/14 14:25:47;;;;;;;;;;;;;;;24.94;54.25;97042.53;4228637;28;5646;-67
2023/09/14 14:27:49;;;;;;;;;;;;;;;24.94;54.18;97037.91;4235938;28;5788;-66
2023/09/14 14:29:53;;;;;;;;;;;;;;;24.94;53.95;97042.53;4230358;28;5631;-66
2023/09/14 14:31:56;;;;;;;;;;;;;;;24.93;54.26;97040.91;4229573;28;5864;-66
2023/09/14 14:33:59;;;;;;;;;;;;;;;24.94;54.13;97045.22;4225447;28;5679;-66
2023/09/14 14:36:04;;;;;;;;;;;;;;;24.93;54.30;97041.72;4229170;28;6506;-66
2023/09/14 14:38:07;;;;;;;;;;;;;;;24.93;54.04;97039.00;4223227;28;5765;-66
2023/09/14 14:40:12;;;;;;;;;;;;;;;24.92;53.99;97034.69;4222661;28;5756;-66
2023/09/14 14:42:35;;;;;;;;;;;;;;;24.92;54.14;97029.28;4227621;28;5638;-67
2023/09/14 14:44:38;;;;;;;;;;;;;;;24.92;54.20;97036.59;4230798;28;6162;-66
2023/09/14 14:46:41;;;;;;;;;;;;;;;24.92;54.15;97034.69;4230652;28;5732;-67
2023/09/14 14:48:45;;;;;;;;;;;;;;;24.91;54.15;97029.53;4228461;28;7085;-67
2023/09/14 14:50:48;;;;;;;;;;;;;;;24.88;53.93;97027.41;4231126;27;5756;-67
2023/09/14 14:52:53;;;;;;;;;;;;;;;24.87;52.84;97023.88;4228934;28;5669;-66
2023/09/14 14:54:56;;;;;;;;;;;;;;;24.86;53.04;97022.28;4231341;28;6598;-67
2023/09/14 14:56:59;;;;;;;;;;;;;;;24.87;53.30;97021.19;4230764;28;5664;-67
2023/09/14 14:59:02;;;;;;;;;;;;;;;24.87;53.34;97018.47;4228965;28;6367;-67
2023/09/14 15:01:10;;;;;;;;;;;;;;;24.88;53.25;97011.16;4228951;28;5906;-67
2023/09/14 15:03:14;;;;;;;;;;;;;;;24.88;53.17;97014.69;4226028;28;5093;-67
2023/09/14 15:05:17;;;;;;;;;;;;;;;24.88;52.91;97008.47;4224041;28;5765;-68
2023/09/14 15:07:20;;;;;;;;;;;;;;;24.88;52.79;97022.78;4218928;28;5905;-67
2023/09/14 15:09:25;;;;;;;;;;;;;;;24.88;52.00;97021.97;4222500;28;6569;-67
2023/09/14 15:11:28;;;;;;;;;;;;;;;24.89;51.76;97013.59;4221253;28;5870;-69
2023/09/14 15:13:31;;;;;;;;;;;;;;;24.91;51.73;97014.13;4228233;27;5745;-68
2023/09/14 15:15:35;;;;;;;;;;;;;;;24.93;51.46;97011.16;4230007;28;5851;-68
2023/09/14 15:17:38;;;;;;;;;;;;;;;24.96;50.47;97008.69;4220768;28;5783;-68
2023/09/14 15:19:41;;;;;;;;;;;;;;;24.97;51.05;97021.13;4229844;28;5687;-69
2023/09/14 15:21:44;;;;;;;;;;;;;;;24.99;50.52;97012.72;4229508;28;6913;-67
2023/09/14 15:23:47;;;;;;;;;;;;;;;25.00;51.08;97014.34;4227269;28;5679;-68
2023/09/14 15:25:53;;;;;;;;;;;;;;;25.00;50.47;97016.25;4234051;28;5829;-69
2023/09/14 15:27:55;;;;;;;;;;;;;;;24.99;50.42;97012.72;4234109;28;6522;-68
2023/09/14 15:29:59;;;;;;;;;;;;;;;25.01;50.23;97009.75;4233855;28;5741;-67
2023/09/14 15:32:02;;;;;;;;;;;;;;;25.01;50.76;97009.75;4233234;28;5778;-68
2023/09/14 15:34:05;;;;;;;;;;;;;;;25.02;50.58;97011.38;4233670;28;5861;-69
2023/09/14 15:36:10;;;;;;;;;;;;;;;25.02;50.34;97012.19;4233648;27;5720;-69
2023/09/14 15:38:13;;;;;;;;;;;;;;;25.03;50.50;97010.28;4233844;28;5649;-67
2023/09/14 15:40:15;;;;;;;;;;;;;;;25.04;50.31;97011.94;4233503;28;7715;-67
2023/09/14 15:42:21;;;;;;;;;;;;;;;25.03;50.32;97013.84;4233662;28;5721;-67